createdAt,value
2019-03-27T00:02:06.854Z,8.23
2019-03-27T00:04:36.681Z,8.25
2019-03-27T00:07:08.125Z,8.22
2019-03-27T00:09:37.764Z,8.21
2019-03-27T00:12:07.488Z,8.20
2019-03-27T00:14:37.081Z,8.19
2019-03-27T00:17:07.815Z,8.17
2019-03-27T00:19:37.606Z,8.12
2019-03-27T00:22:07.265Z,8.07
2019-03-27T00:24:37.302Z,8.07
2019-03-27T00:27:07.203Z,8.05
2019-03-27T00:29:40.127Z,8.03
2019-03-27T00:32:09.904Z,8.03
2019-03-27T00:34:39.710Z,7.98
2019-03-27T00:37:11.021Z,7.93
2019-03-27T00:39:40.662Z,7.93
2019-03-27T00:42:10.375Z,7.94
2019-03-27T00:44:40.627Z,7.90
2019-03-27T00:47:10.356Z,7.87
2019-03-27T00:49:40.378Z,7.84
2019-03-27T00:52:10.318Z,7.79
2019-03-27T00:54:40.108Z,7.74
2019-03-27T00:57:10.080Z,7.73
2019-03-27T00:59:40.032Z,7.69
2019-03-27T01:02:12.441Z,7.59
2019-03-27T01:04:42.497Z,7.50
2019-03-27T01:07:12.463Z,7.46
2019-03-27T01:09:44.865Z,7.49
2019-03-27T01:12:14.489Z,7.46
2019-03-27T01:14:44.116Z,7.46
2019-03-27T01:17:14.199Z,7.43
2019-03-27T01:19:43.968Z,7.42
2019-03-27T01:22:13.719Z,7.40
2019-03-27T01:24:43.390Z,7.32
2019-03-27T01:27:13.599Z,7.29
2019-03-27T01:29:43.297Z,7.26
2019-03-27T01:32:13.105Z,7.23
2019-03-27T01:34:43.788Z,7.23
2019-03-27T01:37:13.850Z,7.12
2019-03-27T01:39:43.858Z,7.07
2019-03-27T01:42:13.419Z,7.02
2019-03-27T01:44:43.371Z,7.00
2019-03-27T01:47:13.932Z,6.99
2019-03-27T01:49:43.606Z,6.99
2019-03-27T01:52:13.273Z,6.94
2019-03-27T01:54:43.104Z,6.94
2019-03-27T01:57:13.277Z,6.97
2019-03-27T01:59:43.068Z,6.97
2019-03-27T02:02:13.381Z,6.94
2019-03-27T02:04:43.623Z,6.97
2019-03-27T02:07:19.117Z,6.95
2019-03-27T02:09:49.028Z,6.95
2019-03-27T02:12:18.676Z,6.90
2019-03-27T02:14:48.370Z,6.84
2019-03-27T02:17:19.108Z,6.83
2019-03-27T02:19:48.900Z,6.80
2019-03-27T02:22:18.639Z,6.82
2019-03-27T02:24:48.274Z,6.84
2019-03-27T02:27:17.983Z,6.89
2019-03-27T02:29:48.571Z,6.90
2019-03-27T02:32:20.627Z,6.90
2019-03-27T02:34:49.826Z,6.92
2019-03-27T02:37:19.751Z,6.94
2019-03-27T02:39:49.397Z,6.93
2019-03-27T02:42:19.422Z,6.92
2019-03-27T02:44:49.005Z,6.92
2019-03-27T02:47:18.672Z,6.93
2019-03-27T02:49:48.771Z,6.93
2019-03-27T02:52:18.357Z,6.92
2019-03-27T02:54:48.056Z,6.93
2019-03-27T02:57:17.856Z,6.93
2019-03-27T02:59:47.712Z,6.90
2019-03-27T03:02:17.405Z,6.87
2019-03-27T03:04:47.089Z,6.82
2019-03-27T03:07:17.795Z,6.83
2019-03-27T03:09:47.765Z,6.80
2019-03-27T03:12:17.458Z,6.81
2019-03-27T03:14:47.151Z,6.82
2019-03-27T03:17:17.315Z,6.77
2019-03-27T03:19:47.027Z,6.78
2019-03-27T03:22:16.998Z,6.73
2019-03-27T03:24:47.112Z,6.68
2019-03-27T03:27:16.852Z,6.61
2019-03-27T03:29:47.002Z,6.53
2019-03-27T03:32:16.818Z,6.48
2019-03-27T03:34:46.488Z,6.46
2019-03-27T03:37:16.977Z,6.51
2019-03-27T03:39:46.785Z,6.45
2019-03-27T03:42:16.546Z,6.42
2019-03-27T03:44:46.232Z,6.43
2019-03-27T03:47:15.909Z,6.41
2019-03-27T03:49:45.687Z,6.38
2019-03-27T03:52:16.802Z,6.40
2019-03-27T03:54:46.667Z,6.43
2019-03-27T03:57:17.361Z,6.45
2019-03-27T03:59:48.458Z,6.44
2019-03-27T04:02:22.072Z,6.40
2019-03-27T04:04:53.239Z,6.40
2019-03-27T04:07:22.951Z,6.39
2019-03-27T04:09:53.374Z,6.37
2019-03-27T04:12:23.159Z,6.37
2019-03-27T04:14:52.830Z,6.36
2019-03-27T04:17:22.645Z,6.37
2019-03-27T04:19:54.070Z,6.38
2019-03-27T04:22:26.675Z,6.36
2019-03-27T04:24:56.444Z,6.34
2019-03-27T04:27:26.197Z,6.32
2019-03-27T04:29:55.806Z,6.31
2019-03-27T04:32:27.489Z,6.28
2019-03-27T04:34:57.301Z,6.30
2019-03-27T04:37:27.020Z,6.29
2019-03-27T04:39:56.736Z,6.32
2019-03-27T04:42:27.001Z,6.32
2019-03-27T04:44:56.870Z,6.29
2019-03-27T04:47:32.408Z,6.27
2019-03-27T04:49:58.730Z,6.27
2019-03-27T04:52:28.370Z,6.24
2019-03-27T04:54:58.237Z,6.26
2019-03-27T04:57:27.897Z,6.24
2019-03-27T04:59:57.621Z,6.18
2019-03-27T05:02:28.972Z,6.18
2019-03-27T05:05:00.835Z,6.16
2019-03-27T05:07:30.523Z,6.16
2019-03-27T05:10:02.229Z,6.17
2019-03-27T05:12:32.117Z,6.18
2019-03-27T05:15:01.991Z,6.16
2019-03-27T05:17:44.786Z,6.15
2019-03-27T05:20:03.787Z,6.15
2019-03-27T05:22:35.267Z,6.06
2019-03-27T05:25:11.245Z,5.98
2019-03-27T05:27:55.424Z,6.00
2019-03-27T05:30:32.444Z,6.05
2019-03-27T05:33:05.157Z,6.05
2019-03-27T05:35:35.165Z,6.11
2019-03-27T05:38:05.070Z,6.11
2019-03-27T05:40:34.991Z,6.10
2019-03-27T05:43:05.197Z,6.15
2019-03-27T05:45:34.959Z,6.19
2019-03-27T05:48:07.534Z,6.21
2019-03-27T05:50:40.644Z,6.25
2019-03-27T05:53:14.339Z,6.27
2019-03-27T05:55:48.064Z,6.26
2019-03-27T05:58:20.958Z,6.31
2019-03-27T06:00:50.865Z,6.40
2019-03-27T06:03:23.037Z,6.43
2019-03-27T06:05:53.256Z,6.42
2019-03-27T06:08:23.769Z,6.44
2019-03-27T06:10:53.819Z,6.49
2019-03-27T06:13:23.736Z,6.51
2019-03-27T06:15:53.687Z,6.55
2019-03-27T06:18:23.473Z,6.51
2019-03-27T06:20:53.595Z,6.55
2019-03-27T06:23:23.804Z,6.50
2019-03-27T06:25:55.880Z,6.54
2019-03-27T06:28:36.196Z,6.46
2019-03-27T06:31:06.143Z,6.42
2019-03-27T06:33:36.178Z,6.53
2019-03-27T06:36:06.418Z,6.56
2019-03-27T06:38:36.818Z,6.56
2019-03-27T06:41:07.648Z,6.64
2019-03-27T06:43:39.520Z,6.66
2019-03-27T06:46:09.276Z,6.70
2019-03-27T06:48:42.294Z,6.78
2019-03-27T06:51:17.190Z,6.86
2019-03-27T06:53:52.896Z,6.91
2019-03-27T06:56:23.064Z,6.91
2019-03-27T06:58:54.842Z,6.95
2019-03-27T07:01:27.208Z,7.02
2019-03-27T07:04:10.028Z,6.96
2019-03-27T07:06:32.391Z,6.96
2019-03-27T07:09:14.724Z,6.91
2019-03-27T07:11:44.900Z,6.97
2019-03-27T07:14:14.982Z,6.92
2019-03-27T07:19:37.080Z,6.98
2019-03-27T07:22:13.673Z,7.00
2019-03-27T07:24:43.822Z,7.11
2019-03-27T07:27:13.965Z,7.17
2019-03-27T07:29:44.073Z,7.18
2019-03-27T07:32:21.819Z,7.25
2019-03-27T07:34:51.641Z,7.30
2019-03-27T07:37:28.559Z,7.37
2019-03-27T07:39:58.632Z,7.43
2019-03-27T07:42:29.738Z,7.53
2019-03-27T07:44:59.733Z,7.59
2019-03-27T07:47:33.627Z,7.61
2019-03-27T07:50:03.589Z,7.60
2019-03-27T07:52:33.593Z,7.49
2019-03-27T07:55:18.469Z,7.43
2019-03-27T07:57:38.924Z,7.46
2019-03-27T08:00:19.776Z,7.42
2019-03-27T08:02:51.479Z,7.51
2019-03-27T08:05:25.474Z,7.59
2019-03-27T08:07:55.477Z,7.66
2019-03-27T08:10:25.137Z,7.81
2019-03-27T08:12:55.733Z,7.84
2019-03-27T08:15:26.834Z,7.93
2019-03-27T08:17:56.554Z,7.83
2019-03-27T08:20:26.353Z,7.89
2019-03-27T08:22:56.498Z,7.97
2019-03-27T08:25:26.153Z,7.85
2019-03-27T08:27:56.783Z,7.72
2019-03-27T08:30:27.576Z,7.77
2019-03-27T08:32:57.576Z,7.94
2019-03-27T08:35:27.803Z,8.06
2019-03-27T08:37:57.959Z,8.25
2019-03-27T08:40:32.440Z,8.22
2019-03-27T08:43:21.439Z,8.19
2019-03-27T08:45:48.105Z,8.12
2019-03-27T08:48:19.544Z,8.03
2019-03-27T08:50:50.088Z,8.10
2019-03-27T08:53:28.719Z,8.07
2019-03-27T08:55:58.921Z,8.10
2019-03-27T08:58:41.902Z,8.16
2019-03-27T09:01:12.431Z,8.23
2019-03-27T09:03:50.567Z,8.21
2019-03-27T09:06:33.007Z,8.29
2019-03-27T09:08:57.955Z,8.45
2019-03-27T09:11:28.207Z,8.61
2019-03-27T09:13:58.177Z,8.76
2019-03-27T09:16:28.407Z,8.86
2019-03-27T09:18:59.205Z,8.79
2019-03-27T09:21:28.778Z,8.92
2019-03-27T09:23:58.356Z,9.02
2019-03-27T09:26:28.244Z,9.24
2019-03-27T09:28:57.828Z,9.48
2019-03-27T09:31:27.436Z,9.61
2019-03-27T09:33:59.032Z,9.73
2019-03-27T09:36:28.911Z,9.80
2019-03-27T09:38:58.653Z,10.05
2019-03-27T09:41:32.040Z,10.29
2019-03-27T09:44:07.955Z,10.51
2019-03-27T09:46:42.065Z,10.74
2019-03-27T09:49:13.369Z,11.06
2019-03-27T09:51:43.404Z,11.07
2019-03-27T09:54:14.760Z,10.82
2019-03-27T09:56:46.271Z,10.93
2019-03-27T09:59:24.301Z,11.10
2019-03-27T10:01:55.746Z,11.07
2019-03-27T10:04:32.806Z,11.10
2019-03-27T10:07:11.310Z,11.07
2019-03-27T10:09:39.009Z,11.04
2019-03-27T10:12:10.239Z,11.08
2019-03-27T10:14:40.886Z,10.89
2019-03-27T10:17:12.783Z,10.89
2019-03-27T10:19:44.718Z,11.00
2019-03-27T10:22:24.072Z,11.06
2019-03-27T10:24:55.301Z,10.85
2019-03-27T10:27:25.264Z,10.78
2019-03-27T10:29:55.923Z,10.81
2019-03-27T10:32:27.867Z,10.89
2019-03-27T10:34:59.164Z,10.92
2019-03-27T10:37:30.611Z,10.79
2019-03-27T10:40:02.307Z,10.69
2019-03-27T10:42:32.125Z,10.66
2019-03-27T10:45:09.076Z,10.71
2019-03-27T10:47:39.001Z,10.70
2019-03-27T10:50:17.668Z,10.78
2019-03-27T10:52:41.309Z,10.97
2019-03-27T10:55:22.081Z,11.17
2019-03-27T10:57:52.040Z,11.34
2019-03-27T11:00:26.588Z,11.48
2019-03-27T11:02:59.312Z,11.63
2019-03-27T11:05:29.062Z,11.60
2019-03-27T11:07:59.319Z,11.47
2019-03-27T11:10:29.236Z,11.38
2019-03-27T11:13:01.727Z,11.36
2019-03-27T11:15:31.715Z,11.46
2019-03-27T11:18:03.995Z,11.34
2019-03-27T11:20:34.062Z,11.46
2019-03-27T11:23:03.982Z,11.69
2019-03-27T11:25:36.831Z,11.93
2019-03-27T11:28:09.316Z,12.25
2019-03-27T11:30:54.208Z,12.42
2019-03-27T11:33:22.722Z,12.33
2019-03-27T11:35:59.226Z,12.56
2019-03-27T11:38:37.267Z,12.72
2019-03-27T11:41:06.002Z,12.63
2019-03-27T11:43:37.465Z,12.55
2019-03-27T11:46:10.065Z,12.47
2019-03-27T11:48:40.706Z,12.42
2019-03-27T11:51:10.726Z,12.24
2019-03-27T11:53:43.971Z,11.88
2019-03-27T11:56:15.219Z,11.79
2019-03-27T11:58:48.437Z,11.73
2019-03-27T12:01:19.330Z,11.75
2019-03-27T12:03:57.386Z,11.82
2019-03-27T12:06:30.537Z,11.77
2019-03-27T12:09:00.883Z,11.82
2019-03-27T12:11:34.220Z,11.82
2019-03-27T12:14:07.015Z,11.61
2019-03-27T12:16:46.217Z,11.78
2019-03-27T12:19:16.751Z,11.89
2019-03-27T12:21:54.909Z,12.17
2019-03-27T12:24:28.747Z,12.33
2019-03-27T12:27:05.111Z,12.58
2019-03-27T12:29:35.528Z,12.63
2019-03-27T12:32:08.337Z,12.71
2019-03-27T12:34:38.732Z,12.66
2019-03-27T12:37:12.547Z,12.30
2019-03-27T12:39:45.143Z,12.14
2019-03-27T12:42:16.801Z,12.06
2019-03-27T12:44:49.097Z,12.05
2019-03-27T12:47:20.419Z,11.84
2019-03-27T12:49:57.039Z,12.00
2019-03-27T12:52:30.676Z,11.87
2019-03-27T12:55:02.015Z,11.84
2019-03-27T12:57:31.966Z,11.77
2019-03-27T13:00:02.258Z,11.71
2019-03-27T13:02:32.630Z,11.66
2019-03-27T13:05:06.987Z,11.63
2019-03-27T13:07:49.359Z,11.75
2019-03-27T13:10:11.543Z,11.82
2019-03-27T13:12:44.513Z,11.91
2019-03-27T13:15:24.435Z,12.04
2019-03-27T13:18:02.404Z,12.16
2019-03-27T13:20:35.355Z,12.29
2019-03-27T13:23:05.505Z,12.38
2019-03-27T13:25:37.266Z,12.27
2019-03-27T13:28:07.704Z,12.21
2019-03-27T13:30:40.616Z,12.21
2019-03-27T13:33:16.677Z,12.16
2019-03-27T13:35:47.221Z,12.15
2019-03-27T13:38:48.608Z,11.99
2019-03-27T13:41:09.652Z,12.07
2019-03-27T13:43:39.727Z,12.30
2019-03-27T13:46:10.020Z,12.46
2019-03-27T13:48:43.170Z,12.57
2019-03-27T13:51:13.461Z,12.70
2019-03-27T13:53:43.768Z,12.81
2019-03-27T13:56:16.349Z,12.94
2019-03-27T13:58:46.757Z,13.13
2019-03-27T14:01:18.380Z,13.13
2019-03-27T14:03:50.329Z,12.89
2019-03-27T14:06:27.785Z,12.68
2019-03-27T14:09:00.618Z,12.54
2019-03-27T14:11:31.028Z,12.43
2019-03-27T14:14:11.101Z,12.42
2019-03-27T14:16:34.649Z,12.29
2019-03-27T14:19:06.416Z,12.25
2019-03-27T14:21:38.845Z,12.33
2019-03-27T14:24:11.530Z,12.26
2019-03-27T14:26:45.688Z,12.18
2019-03-27T14:29:17.569Z,12.24
2019-03-27T14:31:56.792Z,12.36
2019-03-27T14:34:27.204Z,12.50
2019-03-27T14:37:02.957Z,12.50
2019-03-27T14:39:33.714Z,12.56
2019-03-27T14:42:03.852Z,12.57
2019-03-27T14:44:34.212Z,12.64
2019-03-27T14:47:06.251Z,12.64
2019-03-27T14:49:43.962Z,12.57
2019-03-27T14:52:15.939Z,12.56
2019-03-27T14:54:48.538Z,12.53
2019-03-27T14:57:19.089Z,12.45
2019-03-27T14:59:49.015Z,12.54
2019-03-27T15:02:19.673Z,12.64
2019-03-27T15:04:49.722Z,12.59
2019-03-27T15:07:19.943Z,12.44
2019-03-27T15:09:52.742Z,12.41
2019-03-27T15:12:34.488Z,12.49
2019-03-27T15:15:00.430Z,12.46
2019-03-27T15:17:30.559Z,12.57
2019-03-27T15:20:14.775Z,12.44
2019-03-27T15:22:45.502Z,12.43
2019-03-27T15:25:36.369Z,12.29
2019-03-27T15:28:11.491Z,12.36
2019-03-27T15:30:41.790Z,12.38
2019-03-27T15:33:11.529Z,12.36
2019-03-27T15:35:44.415Z,12.45
2019-03-27T15:38:12.491Z,12.36
2019-03-27T15:40:45.110Z,12.37
2019-03-27T15:43:14.817Z,12.41
2019-03-27T15:45:44.393Z,12.43
2019-03-27T15:48:15.616Z,12.42
2019-03-27T15:50:56.849Z,12.20
2019-03-27T15:53:16.816Z,12.14
2019-03-27T15:55:46.825Z,12.18
2019-03-27T15:58:17.146Z,12.01
2019-03-27T16:00:46.738Z,12.04
2019-03-27T16:03:16.397Z,12.08
2019-03-27T16:05:47.193Z,12.15
2019-03-27T16:08:16.858Z,12.11
2019-03-27T16:10:46.417Z,12.09
2019-03-27T16:13:16.009Z,12.18
2019-03-27T16:15:45.631Z,12.17
2019-03-27T16:18:16.757Z,12.08
2019-03-27T16:20:47.612Z,12.08
2019-03-27T16:23:17.564Z,12.08
2019-03-27T16:25:48.720Z,11.95
2019-03-27T16:28:20.356Z,11.82
2019-03-27T16:30:51.896Z,11.90
2019-03-27T16:33:23.456Z,12.00
2019-03-27T16:35:55.169Z,12.03
2019-03-27T16:38:34.946Z,11.91
2019-03-27T16:41:08.016Z,11.91
2019-03-27T16:43:44.073Z,11.91
2019-03-27T16:46:12.489Z,11.86
2019-03-27T16:48:43.013Z,11.85
2019-03-27T16:51:13.335Z,11.89
2019-03-27T16:53:47.920Z,11.95
2019-03-27T16:56:27.047Z,11.95
2019-03-27T16:58:57.374Z,11.96
2019-03-27T17:01:28.866Z,11.94
2019-03-27T17:03:59.135Z,11.91
2019-03-27T17:06:28.898Z,11.97
2019-03-27T17:09:01.350Z,11.94
2019-03-27T17:11:31.244Z,11.86
2019-03-27T17:14:04.058Z,11.83
2019-03-27T17:16:35.284Z,11.76
2019-03-27T17:19:09.896Z,11.78
2019-03-27T17:21:39.939Z,11.79
2019-03-27T17:24:09.957Z,11.83
2019-03-27T17:26:50.579Z,11.91
2019-03-27T17:29:26.973Z,11.93
2019-03-27T17:31:58.325Z,11.90
2019-03-27T17:34:27.915Z,11.86
2019-03-27T17:37:04.396Z,11.77
2019-03-27T17:39:36.035Z,11.71
2019-03-27T17:42:08.429Z,11.71
2019-03-27T17:44:40.115Z,11.69
2019-03-27T17:47:09.995Z,11.68
2019-03-27T17:49:40.776Z,11.71
2019-03-27T17:52:11.969Z,11.73
2019-03-27T17:54:42.325Z,11.74
2019-03-27T17:57:13.220Z,11.75
2019-03-27T17:59:46.834Z,11.73
2019-03-27T18:02:26.776Z,11.69
2019-03-27T18:04:55.757Z,11.69
2019-03-27T18:07:25.635Z,11.70
2019-03-27T18:09:55.616Z,11.71
2019-03-27T18:12:25.225Z,11.69
2019-03-27T18:14:58.291Z,11.70
2019-03-27T18:17:28.110Z,11.67
2019-03-27T18:19:58.082Z,11.67
2019-03-27T18:22:27.767Z,11.65
2019-03-27T18:24:57.747Z,11.60
2019-03-27T18:27:27.598Z,11.58
2019-03-27T18:29:57.779Z,11.53
2019-03-27T18:32:31.825Z,11.51
2019-03-27T18:35:02.014Z,11.51
2019-03-27T18:37:32.405Z,11.46
2019-03-27T18:40:02.690Z,11.42
2019-03-27T18:42:34.703Z,11.40
2019-03-27T18:45:06.362Z,11.40
2019-03-27T18:47:36.145Z,11.39
2019-03-27T18:50:10.976Z,11.38
2019-03-27T18:52:40.998Z,11.31
2019-03-27T18:55:25.706Z,11.30
2019-03-27T18:57:58.986Z,11.28
2019-03-27T19:00:17.221Z,11.26
2019-03-27T19:02:47.364Z,11.28
2019-03-27T19:05:34.071Z,11.24
2019-03-27T19:07:52.570Z,11.23
2019-03-27T19:10:22.604Z,11.22
2019-03-27T19:12:52.443Z,11.18
2019-03-27T19:15:22.219Z,11.18
2019-03-27T19:17:51.998Z,11.19
2019-03-27T19:20:24.829Z,11.19
2019-03-27T19:22:54.775Z,11.22
2019-03-27T19:25:24.998Z,11.21
2019-03-27T19:27:55.035Z,11.21
2019-03-27T19:30:25.104Z,11.20
2019-03-27T19:32:55.377Z,11.16
2019-03-27T19:35:27.938Z,11.18
2019-03-27T19:37:57.775Z,11.14
2019-03-27T19:40:27.569Z,11.14
2019-03-27T19:42:59.287Z,11.14
2019-03-27T19:45:29.367Z,11.13
2019-03-27T19:47:59.339Z,11.16
2019-03-27T19:50:30.298Z,11.14
2019-03-27T19:53:00.743Z,11.16
2019-03-27T19:55:32.098Z,11.14
2019-03-27T19:58:02.180Z,11.13
2019-03-27T20:00:32.551Z,11.15
2019-03-27T20:03:03.186Z,11.15
2019-03-27T20:05:33.749Z,11.17
2019-03-27T20:08:04.260Z,11.16
2019-03-27T20:10:35.014Z,11.17
2019-03-27T20:13:06.195Z,11.14
2019-03-27T20:15:36.762Z,11.14
2019-03-27T20:18:07.398Z,11.15
2019-03-27T20:20:40.216Z,11.15
2019-03-27T20:23:15.628Z,11.14
2019-03-27T20:25:46.031Z,11.08
2019-03-27T20:28:17.382Z,11.05
2019-03-27T20:30:49.298Z,11.07
2019-03-27T20:33:19.456Z,11.06
2019-03-27T20:35:51.291Z,11.01
2019-03-27T20:38:21.570Z,10.99
2019-03-27T20:40:51.832Z,10.98
2019-03-27T20:43:23.535Z,10.99
2019-03-27T20:45:53.819Z,10.99
2019-03-27T20:48:24.284Z,10.98
2019-03-27T20:50:56.070Z,10.95
2019-03-27T20:53:26.204Z,10.95
2019-03-27T20:55:56.724Z,10.94
2019-03-27T20:58:26.938Z,10.93
2019-03-27T21:01:00.363Z,10.94
2019-03-27T21:03:35.695Z,10.94
2019-03-27T21:06:11.244Z,10.97
2019-03-27T21:08:43.061Z,10.97
2019-03-27T21:11:14.389Z,10.95
2019-03-27T21:13:45.061Z,10.93
2019-03-27T21:16:15.413Z,10.96
2019-03-27T21:18:46.271Z,10.94
2019-03-27T21:21:16.949Z,10.98
2019-03-27T21:23:47.306Z,10.98
2019-03-27T21:26:17.771Z,10.93
2019-03-27T21:28:48.615Z,10.90
2019-03-27T21:31:18.659Z,10.89
2019-03-27T21:33:48.999Z,10.90
2019-03-27T21:36:19.392Z,10.90
2019-03-27T21:38:49.564Z,10.91
2019-03-27T21:41:19.810Z,10.91
2019-03-27T21:43:50.173Z,10.92
2019-03-27T21:46:20.431Z,10.88
2019-03-27T21:48:50.830Z,10.89
2019-03-27T21:51:24.680Z,10.91
2019-03-27T21:53:54.985Z,10.93
2019-03-27T21:56:25.731Z,10.90
2019-03-27T21:59:02.377Z,10.92
2019-03-27T22:01:31.246Z,10.92
2019-03-27T22:04:02.190Z,10.92
2019-03-27T22:06:39.431Z,10.93
2019-03-27T22:09:07.799Z,10.92
2019-03-27T22:11:38.139Z,10.90
2019-03-27T22:14:08.199Z,10.93
2019-03-27T22:16:38.709Z,10.92
2019-03-27T22:19:09.998Z,10.92
2019-03-27T22:21:40.360Z,10.90
2019-03-27T22:24:10.726Z,10.92
2019-03-27T22:26:42.430Z,10.90
2019-03-27T22:29:14.794Z,10.93
2019-03-27T22:31:46.032Z,10.87
2019-03-27T22:34:16.705Z,10.83
2019-03-27T22:36:46.538Z,10.81
2019-03-27T22:39:16.918Z,10.79
2019-03-27T22:41:47.264Z,10.78
2019-03-27T22:44:17.402Z,10.76
2019-03-27T22:46:48.205Z,10.77
2019-03-27T22:49:18.497Z,10.81
2019-03-27T22:51:48.330Z,10.79
2019-03-27T22:54:18.902Z,10.78
2019-03-27T22:56:49.119Z,10.76
2019-03-27T22:59:19.366Z,10.78
2019-03-27T23:01:49.725Z,10.75
2019-03-27T23:04:20.534Z,10.75
2019-03-27T23:06:51.730Z,10.76
2019-03-27T23:09:21.934Z,10.73
2019-03-27T23:11:55.097Z,10.73
2019-03-27T23:14:25.619Z,10.73
2019-03-27T23:16:55.812Z,10.70
2019-03-27T23:19:26.061Z,10.71
2019-03-27T23:21:56.155Z,10.71
2019-03-27T23:24:26.321Z,10.69
2019-03-27T23:26:56.239Z,10.66
2019-03-27T23:29:26.033Z,10.64
2019-03-27T23:31:55.671Z,10.62
2019-03-27T23:34:26.267Z,10.64
2019-03-27T23:36:55.914Z,10.63
2019-03-27T23:39:25.819Z,10.60
2019-03-27T23:41:56.071Z,10.58
2019-03-27T23:44:25.806Z,10.61
2019-03-27T23:46:55.495Z,10.60
2019-03-27T23:49:25.155Z,10.60
2019-03-27T23:51:54.931Z,10.63
2019-03-27T23:54:24.858Z,10.60
2019-03-27T23:56:54.869Z,10.62
2019-03-27T23:59:25.711Z,10.61
